createdAt,value
2023-04-16T00:01:02.332Z,17.88
2023-04-16T00:03:29.030Z,23.13
2023-04-16T00:05:56.480Z,21.17
2023-04-16T00:08:26.189Z,18.50
2023-04-16T00:10:55.707Z,20.73
2023-04-16T00:13:22.721Z,18.02
2023-04-16T00:15:49.326Z,17.00
2023-04-16T00:18:15.905Z,18.40
2023-04-16T00:20:42.439Z,17.20
2023-04-16T00:23:08.962Z,18.52
2023-04-16T00:25:35.476Z,20.10
2023-04-16T00:28:01.940Z,22.63
2023-04-16T00:30:28.465Z,18.00
2023-04-16T00:32:54.922Z,17.30
2023-04-16T00:35:21.518Z,17.00
2023-04-16T00:37:48.003Z,19.23
2023-04-16T00:40:14.539Z,17.60
2023-04-16T00:42:41.354Z,19.27
2023-04-16T00:45:08.609Z,18.23
2023-04-16T00:47:35.118Z,22.42
2023-04-16T00:50:04.442Z,22.67
2023-04-16T00:52:34.792Z,21.48
2023-04-16T00:55:01.522Z,22.33
2023-04-16T00:57:28.103Z,20.73
2023-04-16T00:59:54.836Z,23.13
2023-04-16T01:02:21.396Z,24.30
2023-04-16T01:04:48.134Z,24.92
2023-04-16T01:07:14.612Z,26.50
2023-04-16T01:09:41.366Z,25.03
2023-04-16T01:12:07.843Z,25.17
2023-04-16T01:14:36.409Z,21.17
2023-04-16T01:17:03.994Z,20.92
2023-04-16T01:19:36.351Z,19.90
2023-04-16T01:22:04.255Z,19.83
2023-04-16T01:24:31.138Z,18.13
2023-04-16T01:27:00.942Z,19.85
2023-04-16T01:29:27.689Z,21.02
2023-04-16T01:31:54.503Z,21.63
2023-04-16T01:34:21.066Z,24.20
2023-04-16T01:36:47.624Z,19.30
2023-04-16T01:39:16.280Z,26.42
2023-04-16T01:41:43.006Z,23.95
2023-04-16T01:44:09.467Z,23.88
2023-04-16T01:46:37.754Z,23.40
2023-04-16T01:49:05.082Z,27.17
2023-04-16T01:51:32.275Z,24.23
2023-04-16T01:53:59.036Z,24.75
2023-04-16T01:56:25.798Z,22.00
2023-04-16T01:58:52.966Z,23.37
2023-04-16T02:01:19.663Z,24.83
2023-04-16T02:03:47.131Z,26.23
2023-04-16T02:06:13.866Z,29.95
2023-04-16T02:08:41.483Z,25.58
2023-04-16T02:11:08.250Z,20.70
2023-04-16T02:13:34.924Z,24.75
2023-04-16T02:16:02.507Z,23.80
2023-04-16T02:18:29.105Z,25.92
2023-04-16T02:20:58.561Z,19.30
2023-04-16T02:23:25.153Z,22.73
2023-04-16T02:25:51.669Z,20.50
2023-04-16T02:28:18.222Z,23.77
2023-04-16T02:30:45.192Z,24.67
2023-04-16T02:33:12.308Z,24.75
2023-04-16T02:35:40.225Z,24.17
2023-04-16T02:38:07.671Z,19.70
2023-04-16T02:40:34.239Z,17.35
2023-04-16T02:43:00.886Z,20.10
2023-04-16T02:45:27.851Z,20.67
2023-04-16T02:47:54.460Z,27.93
2023-04-16T02:50:21.124Z,23.77
2023-04-16T02:52:48.544Z,29.98
2023-04-16T02:55:15.034Z,32.20
2023-04-16T02:57:42.522Z,28.00
2023-04-16T03:00:09.825Z,24.97
2023-04-16T03:02:36.485Z,23.73
2023-04-16T03:05:03.872Z,19.42
2023-04-16T03:07:30.413Z,18.63
2023-04-16T03:09:57.007Z,20.85
2023-04-16T03:12:23.534Z,18.20
2023-04-16T03:14:52.392Z,19.95
2023-04-16T03:17:18.915Z,22.90
2023-04-16T03:19:45.442Z,23.33
2023-04-16T03:22:11.942Z,20.40
2023-04-16T03:24:38.407Z,21.60
2023-04-16T03:27:04.952Z,21.30
2023-04-16T03:29:31.400Z,19.45
2023-04-16T03:31:58.444Z,20.75
2023-04-16T03:34:24.955Z,19.95
2023-04-16T03:36:51.366Z,21.93
2023-04-16T03:39:17.908Z,20.25
2023-04-16T03:41:44.308Z,25.73
2023-04-16T03:44:10.976Z,24.42
2023-04-16T03:46:37.574Z,25.33
2023-04-16T03:49:04.259Z,24.30
2023-04-16T03:51:30.953Z,22.23
2023-04-16T03:53:57.531Z,19.70
2023-04-16T03:56:24.102Z,29.23
2023-04-16T03:58:50.600Z,22.83
2023-04-16T04:01:17.066Z,22.30
2023-04-16T04:03:43.876Z,25.25
2023-04-16T04:06:10.559Z,24.15
2023-04-16T04:08:37.042Z,20.85
2023-04-16T04:11:03.641Z,21.77
2023-04-16T04:13:30.255Z,20.63
2023-04-16T04:15:56.838Z,24.20
2023-04-16T04:18:23.443Z,23.70
2023-04-16T04:20:49.965Z,25.40
2023-04-16T04:23:16.475Z,24.13
2023-04-16T04:25:43.015Z,25.23
2023-04-16T04:28:09.489Z,24.45
2023-04-16T04:30:35.990Z,22.70
2023-04-16T04:33:02.843Z,21.08
2023-04-16T04:35:29.401Z,19.67
2023-04-16T04:37:55.925Z,21.10
2023-04-16T04:40:22.416Z,17.42
2023-04-16T04:42:49.089Z,23.17
2023-04-16T04:45:16.074Z,20.25
2023-04-16T04:47:42.666Z,24.75
2023-04-16T04:50:09.799Z,22.57
2023-04-16T04:52:36.360Z,18.95
2023-04-16T04:55:02.876Z,23.70
2023-04-16T04:57:29.384Z,22.75
2023-04-16T04:59:55.902Z,21.42
2023-04-16T05:02:22.499Z,24.53
2023-04-16T05:04:49.104Z,21.40
2023-04-16T05:07:16.263Z,17.08
2023-04-16T05:09:42.779Z,20.25
2023-04-16T05:12:09.273Z,19.52
2023-04-16T05:14:36.345Z,21.13
2023-04-16T05:17:03.037Z,17.73
2023-04-16T05:19:29.713Z,15.77
2023-04-16T05:21:56.277Z,20.38
2023-04-16T05:24:23.205Z,21.55
2023-04-16T05:26:49.710Z,19.43
2023-04-16T05:29:16.187Z,21.58
2023-04-16T05:31:42.772Z,20.35
2023-04-16T05:34:09.251Z,28.73
2023-04-16T05:36:35.788Z,28.48
2023-04-16T05:39:06.482Z,17.80
2023-04-16T05:41:33.590Z,18.60
2023-04-16T05:44:00.399Z,18.40
2023-04-16T05:46:26.920Z,19.20
2023-04-16T05:48:53.448Z,22.75
2023-04-16T05:51:21.963Z,17.23
2023-04-16T05:53:48.533Z,16.05
2023-04-16T05:56:14.948Z,18.63
2023-04-16T05:58:41.416Z,22.48
2023-04-16T06:01:07.865Z,23.40
2023-04-16T06:03:34.353Z,20.40
2023-04-16T06:06:00.896Z,18.70
2023-04-16T06:08:27.457Z,20.38
2023-04-16T06:10:53.905Z,23.38
2023-04-16T06:13:20.484Z,20.00
2023-04-16T06:15:47.057Z,21.67
2023-04-16T06:18:13.748Z,25.75
2023-04-16T06:20:40.523Z,18.58
2023-04-16T06:23:06.958Z,27.55
2023-04-16T06:25:33.421Z,21.00
2023-04-16T06:27:59.841Z,22.83
2023-04-16T06:30:26.405Z,24.35
2023-04-16T06:32:53.651Z,26.45
2023-04-16T06:35:20.259Z,28.23
2023-04-16T06:37:47.300Z,23.98
2023-04-16T06:40:13.909Z,23.70
2023-04-16T06:42:40.983Z,21.45
2023-04-16T06:45:09.713Z,22.40
2023-04-16T06:47:36.146Z,21.05
2023-04-16T06:50:02.628Z,19.35
2023-04-16T06:52:29.590Z,20.30
2023-04-16T06:54:56.737Z,27.98
2023-04-16T06:57:23.492Z,24.13
2023-04-16T06:59:50.386Z,25.35
2023-04-16T07:02:19.800Z,17.67
2023-04-16T07:04:46.935Z,20.87
2023-04-16T07:07:13.501Z,21.92
2023-04-16T07:09:40.053Z,21.55
2023-04-16T07:12:07.184Z,28.88
2023-04-16T07:14:33.840Z,28.08
2023-04-16T07:17:00.578Z,24.27
2023-04-16T07:19:30.560Z,24.50
2023-04-16T07:21:57.303Z,17.67
2023-04-16T07:24:24.263Z,29.98
2023-04-16T07:26:50.855Z,21.83
2023-04-16T07:29:17.289Z,22.03
2023-04-16T07:31:45.272Z,24.88
2023-04-16T07:34:12.144Z,21.88
2023-04-16T07:36:41.503Z,27.63
2023-04-16T07:39:08.476Z,30.40
2023-04-16T07:41:35.538Z,29.27
2023-04-16T07:44:02.212Z,33.85
2023-04-16T07:46:39.410Z,37.63
2023-04-16T07:49:12.607Z,31.88
2023-04-16T07:51:39.330Z,31.70
2023-04-16T07:54:06.007Z,30.20
2023-04-16T07:56:32.466Z,26.67
2023-04-16T07:59:07.968Z,30.60
2023-04-16T08:01:46.045Z,28.75
2023-04-16T08:04:12.941Z,25.33
2023-04-16T08:06:39.790Z,23.60
2023-04-16T08:09:06.396Z,21.70
2023-04-16T08:11:33.216Z,21.50
2023-04-16T08:13:59.699Z,19.83
2023-04-16T08:16:26.490Z,19.55
2023-04-16T08:18:59.194Z,25.73
2023-04-16T08:21:28.093Z,22.55
2023-04-16T08:23:54.638Z,20.92
2023-04-16T08:26:21.368Z,21.65
2023-04-16T08:28:48.029Z,22.05
2023-04-16T08:31:14.573Z,21.13
2023-04-16T08:33:44.127Z,19.27
2023-04-16T08:36:11.178Z,19.65
2023-04-16T08:38:37.770Z,14.88
2023-04-16T08:41:09.715Z,13.25
2023-04-16T08:43:39.355Z,15.70
2023-04-16T08:46:06.655Z,20.65
2023-04-16T08:48:34.392Z,21.30
2023-04-16T08:51:02.680Z,18.65
2023-04-16T08:53:52.325Z,18.88
2023-04-16T08:56:21.544Z,17.97
2023-04-16T08:58:50.077Z,16.00
2023-04-16T09:01:20.160Z,16.27
2023-04-16T09:03:48.911Z,16.60
2023-04-16T09:06:17.300Z,15.95
2023-04-16T09:08:48.120Z,15.53
2023-04-16T09:11:18.093Z,14.27
2023-04-16T09:13:46.437Z,13.10
2023-04-16T09:16:13.892Z,11.70
2023-04-16T09:18:41.869Z,13.05
2023-04-16T09:21:11.174Z,13.10
2023-04-16T09:23:39.138Z,12.30
2023-04-16T09:26:06.315Z,9.35
2023-04-16T09:28:44.043Z,9.57
2023-04-16T09:31:11.645Z,9.52
2023-04-16T09:33:38.671Z,9.83
2023-04-16T09:36:06.106Z,9.57
2023-04-16T09:38:48.808Z,8.57
2023-04-16T09:41:18.990Z,11.55
2023-04-16T09:43:56.821Z,11.40
2023-04-16T09:46:41.039Z,13.23
2023-04-16T09:49:11.641Z,11.30
2023-04-16T09:51:42.935Z,13.40
2023-04-16T09:54:10.116Z,11.63
2023-04-16T09:56:44.635Z,11.55
2023-04-16T09:59:18.718Z,12.37
2023-04-16T10:01:47.129Z,12.05
2023-04-16T10:04:14.016Z,11.35
2023-04-16T10:06:40.970Z,9.70
2023-04-16T10:09:10.105Z,9.75
2023-04-16T10:11:37.771Z,8.17
2023-04-16T10:14:04.721Z,8.07
2023-04-16T10:16:32.341Z,9.38
2023-04-16T10:18:59.257Z,9.77
2023-04-16T10:21:33.695Z,7.05
2023-04-16T10:24:01.136Z,4.77
2023-04-16T10:26:29.851Z,4.43
2023-04-16T10:28:58.188Z,5.00
2023-04-16T10:31:29.195Z,4.40
2023-04-16T10:33:56.917Z,4.97
2023-04-16T10:36:27.154Z,5.47
2023-04-16T10:38:59.192Z,5.18
2023-04-16T10:41:28.418Z,5.93
2023-04-16T10:44:11.324Z,5.50
2023-04-16T10:46:42.895Z,5.95
2023-04-16T10:49:17.677Z,6.43
2023-04-16T10:52:07.600Z,5.50
2023-04-16T10:54:36.585Z,6.03
2023-04-16T10:57:05.132Z,4.35
2023-04-16T10:59:36.577Z,3.80
2023-04-16T11:02:14.048Z,4.23
2023-04-16T11:04:44.101Z,3.60
2023-04-16T11:07:16.605Z,4.60
2023-04-16T11:10:13.441Z,4.65
2023-04-16T11:12:41.780Z,4.35
2023-04-16T11:15:11.045Z,3.90
2023-04-16T11:17:47.697Z,4.40
2023-04-16T11:20:21.783Z,4.15
2023-04-16T11:22:51.916Z,4.13
2023-04-16T11:25:24.458Z,3.90
2023-04-16T11:27:52.086Z,4.03
2023-04-16T11:30:27.766Z,3.10
2023-04-16T11:32:54.454Z,3.20
2023-04-16T11:35:21.108Z,3.22
2023-04-16T11:37:50.722Z,3.13
2023-04-16T11:40:17.240Z,3.70
2023-04-16T11:42:44.444Z,3.20
2023-04-16T11:45:12.531Z,4.03
2023-04-16T11:47:46.680Z,3.28
2023-04-16T11:50:18.695Z,4.00
2023-04-16T11:52:45.324Z,3.90
2023-04-16T11:55:12.133Z,6.50
2023-04-16T11:57:38.963Z,6.13
2023-04-16T12:00:10.646Z,4.88
2023-04-16T12:02:41.260Z,6.50
2023-04-16T12:05:28.477Z,4.70
2023-04-16T12:07:55.864Z,4.43
2023-04-16T12:10:22.425Z,5.22
2023-04-16T12:12:49.034Z,4.72
2023-04-16T12:15:15.719Z,5.57
2023-04-16T12:17:42.434Z,5.07
2023-04-16T12:20:09.938Z,3.92
2023-04-16T12:22:41.390Z,3.70
2023-04-16T12:25:11.640Z,3.45
2023-04-16T12:27:47.099Z,3.90
2023-04-16T12:30:19.008Z,2.83
2023-04-16T12:32:48.060Z,3.03
2023-04-16T12:35:28.835Z,3.35
2023-04-16T12:37:55.334Z,3.00
2023-04-16T12:40:21.841Z,2.60
2023-04-16T12:42:48.420Z,2.93
2023-04-16T12:45:15.017Z,2.70
2023-04-16T12:47:41.600Z,2.45
2023-04-16T12:50:08.345Z,2.72
2023-04-16T12:52:35.818Z,3.13
2023-04-16T12:55:03.133Z,2.67
2023-04-16T12:57:29.693Z,3.10
2023-04-16T12:59:57.350Z,2.42
2023-04-16T13:02:24.803Z,3.85
2023-04-16T13:04:54.671Z,4.50
2023-04-16T13:07:22.054Z,4.60
2023-04-16T13:09:48.673Z,5.50
2023-04-16T13:12:15.635Z,4.95
2023-04-16T13:14:44.615Z,4.22
2023-04-16T13:17:11.579Z,6.15
2023-04-16T13:19:38.100Z,5.50
2023-04-16T13:22:04.627Z,6.15
2023-04-16T13:24:31.368Z,6.82
2023-04-16T13:26:57.892Z,8.35
2023-04-16T13:29:24.486Z,6.15
2023-04-16T13:31:51.118Z,5.57
2023-04-16T13:34:17.679Z,4.85
2023-04-16T13:36:44.364Z,4.35
2023-04-16T13:39:11.614Z,5.18
2023-04-16T13:41:38.866Z,4.93
2023-04-16T13:44:05.685Z,4.60
2023-04-16T13:46:32.507Z,4.28
2023-04-16T13:48:59.116Z,4.25
2023-04-16T13:51:27.370Z,4.78
2023-04-16T13:53:54.755Z,4.38
2023-04-16T13:56:21.344Z,4.10
2023-04-16T13:58:47.922Z,5.13
2023-04-16T14:01:14.757Z,4.40
2023-04-16T14:03:42.098Z,4.53
2023-04-16T14:06:08.786Z,3.97
2023-04-16T14:08:35.367Z,4.67
2023-04-16T14:11:02.158Z,3.88
2023-04-16T14:13:28.745Z,4.07
2023-04-16T14:15:55.712Z,4.32
2023-04-16T14:18:22.476Z,3.53
2023-04-16T14:20:49.063Z,3.70
2023-04-16T14:23:15.744Z,4.88
2023-04-16T14:25:42.275Z,4.30
2023-04-16T14:28:09.357Z,4.05
2023-04-16T14:30:35.853Z,4.30
2023-04-16T14:33:06.720Z,3.60
2023-04-16T14:35:34.101Z,3.72
2023-04-16T14:38:01.318Z,3.80
2023-04-16T14:40:27.797Z,4.47
2023-04-16T14:42:54.374Z,4.10
2023-04-16T14:45:21.184Z,3.00
2023-04-16T14:47:48.153Z,4.10
2023-04-16T14:50:15.565Z,4.30
2023-04-16T14:52:42.247Z,4.45
2023-04-16T14:55:09.003Z,3.10
2023-04-16T14:57:35.918Z,5.23
2023-04-16T15:00:02.907Z,4.05
2023-04-16T15:02:29.637Z,4.60
2023-04-16T15:04:56.261Z,4.05
2023-04-16T15:07:22.807Z,5.20
2023-04-16T15:09:49.260Z,4.07
2023-04-16T15:12:17.932Z,4.15
2023-04-16T15:14:45.659Z,4.93
2023-04-16T15:17:12.174Z,3.80
2023-04-16T15:19:38.768Z,4.40
2023-04-16T15:22:05.302Z,4.93
2023-04-16T15:24:31.774Z,3.85
2023-04-16T15:26:58.373Z,4.40
2023-04-16T15:29:24.969Z,5.05
2023-04-16T15:31:51.683Z,4.97
2023-04-16T15:34:18.356Z,4.70
2023-04-16T15:36:44.879Z,5.28
2023-04-16T15:39:11.463Z,5.28
2023-04-16T15:41:50.180Z,4.22
2023-04-16T15:44:26.001Z,4.55
2023-04-16T15:46:52.646Z,4.73
2023-04-16T15:49:19.107Z,5.72
2023-04-16T15:51:46.264Z,5.25
2023-04-16T15:54:12.737Z,5.13
2023-04-16T15:56:39.608Z,5.30
2023-04-16T15:59:06.483Z,6.67
2023-04-16T16:01:33.008Z,6.43
2023-04-16T16:03:59.747Z,6.05
2023-04-16T16:06:27.179Z,5.78
2023-04-16T16:08:54.505Z,6.18
2023-04-16T16:11:21.835Z,6.20
2023-04-16T16:13:48.446Z,5.80
2023-04-16T16:16:15.371Z,5.68
2023-04-16T16:18:42.244Z,7.00
2023-04-16T16:21:08.841Z,6.32
2023-04-16T16:23:35.326Z,7.13
2023-04-16T16:26:01.905Z,6.60
2023-04-16T16:28:28.432Z,8.05
2023-04-16T16:30:55.665Z,6.90
2023-04-16T16:33:22.474Z,7.05
2023-04-16T16:35:48.953Z,9.77
2023-04-16T16:38:15.565Z,8.48
2023-04-16T16:40:42.193Z,9.40
2023-04-16T16:43:08.914Z,12.10
2023-04-16T16:45:35.424Z,11.77
2023-04-16T16:48:03.851Z,12.80
2023-04-16T16:50:33.278Z,11.20
2023-04-16T16:53:00.432Z,11.38
2023-04-16T16:55:27.115Z,12.65
2023-04-16T16:57:53.607Z,13.60
2023-04-16T17:00:21.471Z,12.63
2023-04-16T17:02:51.189Z,13.23
2023-04-16T17:05:18.185Z,14.07
2023-04-16T17:07:44.757Z,12.63
2023-04-16T17:10:13.108Z,13.93
2023-04-16T17:12:39.752Z,12.90
2023-04-16T17:15:06.702Z,13.00
2023-04-16T17:17:33.365Z,18.83
2023-04-16T17:20:01.032Z,17.35
2023-04-16T17:22:27.928Z,15.18
2023-04-16T17:24:54.484Z,15.10
2023-04-16T17:27:21.005Z,14.95
2023-04-16T17:29:47.566Z,16.13
2023-04-16T17:32:14.196Z,16.08
2023-04-16T17:34:41.004Z,18.00
2023-04-16T17:37:07.465Z,16.03
2023-04-16T17:39:33.901Z,16.27
2023-04-16T17:42:02.973Z,22.92
2023-04-16T17:44:29.470Z,16.05
2023-04-16T17:46:57.217Z,20.38
2023-04-16T17:49:23.906Z,21.10
2023-04-16T17:51:50.559Z,17.33
2023-04-16T17:54:17.032Z,17.40
2023-04-16T17:56:43.543Z,17.25
2023-04-16T17:59:10.118Z,15.88
2023-04-16T18:01:36.717Z,20.17
2023-04-16T18:04:03.312Z,16.38
2023-04-16T18:06:30.944Z,22.60
2023-04-16T18:08:57.467Z,19.25
2023-04-16T18:11:23.981Z,18.13
2023-04-16T18:13:52.489Z,17.57
2023-04-16T18:16:19.216Z,16.55
2023-04-16T18:18:46.125Z,23.38
2023-04-16T18:21:12.913Z,18.00
2023-04-16T18:23:39.445Z,19.38
2023-04-16T18:26:08.511Z,18.43
2023-04-16T18:28:35.989Z,16.73
2023-04-16T18:31:05.670Z,16.42
2023-04-16T18:36:02.421Z,17.02
2023-04-16T18:38:32.040Z,21.57
2023-04-16T18:40:59.433Z,15.27
2023-04-16T18:43:26.350Z,19.92
2023-04-16T18:45:52.917Z,17.17
2023-04-16T18:48:19.732Z,19.90
2023-04-16T18:50:46.270Z,17.17
2023-04-16T18:53:12.845Z,17.88
2023-04-16T18:55:39.503Z,22.58
2023-04-16T18:58:06.155Z,18.63
2023-04-16T19:00:32.786Z,19.50
2023-04-16T19:02:59.465Z,17.60
2023-04-16T19:05:26.215Z,17.67
2023-04-16T19:07:52.915Z,19.88
2023-04-16T19:10:19.401Z,21.10
2023-04-16T19:12:45.976Z,19.35
2023-04-16T19:15:12.659Z,17.27
2023-04-16T19:17:40.024Z,18.50
2023-04-16T19:20:11.325Z,18.95
2023-04-16T19:22:38.458Z,20.95
2023-04-16T19:25:06.041Z,18.08
2023-04-16T19:27:32.945Z,19.33
2023-04-16T19:29:59.617Z,17.27
2023-04-16T19:32:26.134Z,17.50
2023-04-16T19:34:52.767Z,19.48
2023-04-16T19:37:19.271Z,20.48
2023-04-16T19:39:46.037Z,18.63
2023-04-16T19:42:12.741Z,21.33
2023-04-16T19:44:39.247Z,19.45
2023-04-16T19:47:06.466Z,17.13
2023-04-16T19:49:34.466Z,18.27
2023-04-16T19:52:01.363Z,21.40
2023-04-16T19:54:28.690Z,18.67
2023-04-16T19:56:55.542Z,19.85
2023-04-16T19:59:22.155Z,18.77
2023-04-16T20:01:48.710Z,18.85
2023-04-16T20:04:15.452Z,17.67
2023-04-16T20:06:41.952Z,18.05
2023-04-16T20:09:08.496Z,20.77
2023-04-16T20:11:35.515Z,19.63
2023-04-16T20:14:02.072Z,17.67
2023-04-16T20:16:30.279Z,16.97
2023-04-16T20:18:57.558Z,19.73
2023-04-16T20:21:25.239Z,19.25
2023-04-16T20:23:51.907Z,16.70
2023-04-16T20:26:19.348Z,18.58
2023-04-16T20:28:46.172Z,16.93
2023-04-16T20:31:13.364Z,19.55
2023-04-16T20:33:39.930Z,16.52
2023-04-16T20:36:07.109Z,19.83
2023-04-16T20:38:35.438Z,17.50
2023-04-16T20:41:12.122Z,20.27
2023-04-16T20:43:41.117Z,17.90
2023-04-16T20:46:12.316Z,18.98
2023-04-16T20:48:39.072Z,17.17
2023-04-16T20:51:07.605Z,18.77
2023-04-16T20:53:34.310Z,16.23
2023-04-16T20:56:01.005Z,16.90
2023-04-16T20:58:27.483Z,17.38
2023-04-16T21:00:56.028Z,18.60
2023-04-16T21:03:22.844Z,20.13
2023-04-16T21:05:51.344Z,18.43
2023-04-16T21:08:18.103Z,17.75
2023-04-16T21:10:45.136Z,17.13
2023-04-16T21:13:11.931Z,17.38
2023-04-16T21:15:39.989Z,19.90
2023-04-16T21:18:07.160Z,19.70
2023-04-16T21:20:34.322Z,18.10
2023-04-16T21:23:01.537Z,17.05
2023-04-16T21:25:28.381Z,18.40
2023-04-16T21:27:54.839Z,18.23
2023-04-16T21:30:21.883Z,20.23
2023-04-16T21:32:48.708Z,16.63
2023-04-16T21:35:15.224Z,18.05
2023-04-16T21:37:41.762Z,17.13
2023-04-16T21:40:08.713Z,19.63
2023-04-16T21:42:39.663Z,17.07
2023-04-16T21:45:11.807Z,19.10
2023-04-16T21:47:38.406Z,18.63
2023-04-16T21:50:05.786Z,19.80
2023-04-16T21:52:33.058Z,21.23
2023-04-16T21:55:00.614Z,19.90
2023-04-16T21:57:27.140Z,17.38
2023-04-16T21:59:53.670Z,17.70
2023-04-16T22:02:20.416Z,19.52
2023-04-16T22:04:47.252Z,21.52
2023-04-16T22:07:13.801Z,18.97
2023-04-16T22:09:40.848Z,18.77
2023-04-16T22:12:10.174Z,19.17
2023-04-16T22:14:38.373Z,19.50
2023-04-16T22:17:09.393Z,21.48
2023-04-16T22:19:37.199Z,20.63
2023-04-16T22:22:03.734Z,24.65
2023-04-16T22:24:30.409Z,22.60
2023-04-16T22:26:57.173Z,18.45
2023-04-16T22:29:23.728Z,19.70
2023-04-16T22:31:50.423Z,18.23
2023-04-16T22:34:17.005Z,19.52
2023-04-16T22:36:43.484Z,24.45
2023-04-16T22:39:10.155Z,20.95
2023-04-16T22:41:37.501Z,18.20
2023-04-16T22:44:04.126Z,18.27
2023-04-16T22:46:31.061Z,18.92
2023-04-16T22:48:57.954Z,22.92
2023-04-16T22:51:24.523Z,19.20
2023-04-16T22:53:54.118Z,19.15
2023-04-16T22:56:21.395Z,18.07
2023-04-16T22:58:49.397Z,21.50
2023-04-16T23:01:16.951Z,18.80
2023-04-16T23:03:43.588Z,17.77
2023-04-16T23:06:10.221Z,18.95
2023-04-16T23:08:36.726Z,22.20
2023-04-16T23:11:03.411Z,17.25
2023-04-16T23:13:30.005Z,17.50
2023-04-16T23:15:56.532Z,18.75
2023-04-16T23:18:23.124Z,21.02
2023-04-16T23:20:53.353Z,19.23
2023-04-16T23:23:19.951Z,19.27
2023-04-16T23:25:46.511Z,18.50
2023-04-16T23:28:13.113Z,19.52
2023-04-16T23:30:39.621Z,17.77
2023-04-16T23:33:06.709Z,20.40
2023-04-16T23:35:33.290Z,21.40
2023-04-16T23:37:59.910Z,20.50
2023-04-16T23:40:26.470Z,19.23
2023-04-16T23:42:52.940Z,17.13
2023-04-16T23:45:19.457Z,18.50
2023-04-16T23:47:46.983Z,17.58
2023-04-16T23:50:13.463Z,20.17
2023-04-16T23:52:40.109Z,16.33
2023-04-16T23:55:06.922Z,18.25
2023-04-16T23:57:33.435Z,14.47
2023-04-16T23:59:59.928Z,15.10
